Time;durP1;ratioP1;P1;durP2;ratioP2;P2;SDS_P1;SDS_P2;PMS_P1;PMS_P2;Temp;Humidity;BMP_temperature;BMP_pressure;BME280_temperature;BME280_humidity;BME280_pressure;Samples;Min_cycle;Max_cycle;Signal;HPM_P1;HPM_P2
2023/04/07 00:01:12;;;;;;;76.18;33.17;;;9.70;99.90;;;;;;6223323;23;20007;-89
2023/04/07 00:03:39;;;;;;;68.65;30.73;;;9.70;99.90;;;;;;6199220;23;20008;-94
2023/04/07 00:06:05;;;;;;;86.45;33.63;;;9.70;99.90;;;;;;6224379;23;20012;-92
2023/04/07 00:08:31;;;;;;;75.63;30.23;;;9.70;99.90;;;;;;6222911;23;20008;-91
2023/04/07 00:10:57;;;;;;;74.93;30.67;;;9.70;99.90;;;;;;6248509;23;20027;-92
2023/04/07 00:13:23;;;;;;;67.07;28.10;;;9.70;99.90;;;;;;6248772;23;20015;-92
2023/04/07 00:15:48;;;;;;;56.65;25.75;;;9.70;99.90;;;;;;6224113;23;20008;-91
2023/04/07 00:18:14;;;;;;;74.43;26.77;;;9.70;99.90;;;;;;6249723;23;20337;-92
2023/04/07 00:20:40;;;;;;;68.18;26.10;;;9.60;99.90;;;;;;6224222;23;20000;-92
2023/04/07 00:23:05;;;;;;;59.95;25.77;;;9.60;99.90;;;;;;6223736;23;20034;-94
2023/04/07 00:25:32;;;;;;;57.55;24.73;;;9.60;99.90;;;;;;6225763;23;20004;-93
2023/04/07 00:27:57;;;;;;;51.15;22.30;;;9.60;99.90;;;;;;6199838;23;20427;-94
2023/04/07 00:30:26;;;;;;;48.25;22.80;;;9.60;99.90;;;;;;6229425;22;20030;-93
2023/04/07 00:32:52;;;;;;;57.03;23.13;;;9.60;99.90;;;;;;6258149;22;20010;-94
2023/04/07 00:35:18;;;;;;;64.80;23.38;;;9.60;99.90;;;;;;6263420;22;20011;-92
2023/04/07 00:37:44;;;;;;;66.60;24.10;;;9.70;99.90;;;;;;6257893;22;20319;-89
2023/04/07 00:40:10;;;;;;;64.85;24.92;;;9.70;99.90;;;;;;6254541;22;20308;-91
2023/04/07 00:42:35;;;;;;;53.00;22.35;;;9.70;99.90;;;;;;6228144;22;20003;-91
2023/04/07 00:45:01;;;;;;;48.47;22.13;;;9.70;99.90;;;;;;6228507;22;20003;-92
2023/04/07 00:47:27;;;;;;;57.78;22.48;;;9.70;99.90;;;;;;6253468;22;19999;-91
2023/04/07 00:49:53;;;;;;;59.63;23.17;;;9.70;99.90;;;;;;6228639;22;20018;-92
2023/04/07 00:52:26;;;;;;;54.00;22.70;;;9.70;99.90;;;;;;6253214;22;20003;-91
2023/04/07 00:54:56;;;;;;;44.80;20.67;;;9.70;99.90;;;;;;6253498;22;20003;-91
2023/04/07 00:57:22;;;;;;;47.28;21.65;;;9.70;99.90;;;;;;6244711;22;20028;-94
2023/04/07 00:59:52;;;;;;;59.20;21.75;;;9.70;99.90;;;;;;6220401;22;20011;-96
2023/04/07 01:02:30;;;;;;;49.53;21.25;;;9.70;99.90;;;;;;6259911;22;20011;-94
2023/04/07 01:05:06;;;;;;;39.28;19.60;;;9.70;99.90;;;;;;6254357;22;20426;-90
2023/04/07 01:07:49;;;;;;;32.85;17.20;;;9.70;99.90;;;;;;6252959;22;20103;-90
2023/04/07 01:10:44;;;;;;;42.13;17.42;;;9.60;99.90;;;;;;6252960;22;20007;-90
2023/04/07 01:13:23;;;;;;;38.08;17.42;;;9.60;99.90;;;;;;6253882;22;20022;-94
2023/04/07 01:15:51;;;;;;;37.63;16.17;;;9.60;99.90;;;;;;6252962;22;20008;-95
2023/04/07 01:18:23;;;;;;;41.35;17.35;;;9.60;99.90;;;;;;6253741;22;20378;-95
2023/04/07 01:20:51;;;;;;;44.92;18.00;;;9.60;99.90;;;;;;6253803;22;20355;-94
2023/04/07 01:23:26;;;;;;;44.38;16.60;;;9.60;99.90;;;;;;6261702;22;20083;-95
2023/04/07 01:26:11;;;;;;;35.50;17.00;;;9.60;99.90;;;;;;6272369;22;20010;-96
2023/04/07 01:28:56;;;;;;;36.00;15.85;;;9.60;99.90;;;;;;6270273;22;20039;-92
2023/04/07 01:31:25;;;;;;;45.50;17.08;;;9.60;99.90;;;;;;6252779;22;20073;-91
2023/04/07 01:33:53;;;;;;;33.67;15.00;;;9.60;99.90;;;;;;6252507;22;20004;-93
2023/04/07 01:36:21;;;;;;;39.97;15.68;;;9.60;99.90;;;;;;6227933;22;20042;-94
2023/04/07 01:38:49;;;;;;;28.83;15.68;;;9.60;99.90;;;;;;6228208;22;20101;-94
2023/04/07 01:41:16;;;;;;;34.28;15.20;;;9.60;99.90;;;;;;6253383;22;20011;-94
2023/04/07 01:43:42;;;;;;;38.45;13.57;;;9.60;99.90;;;;;;6253437;22;20075;-93
2023/04/07 01:46:08;;;;;;;34.35;14.75;;;9.60;99.90;;;;;;6253652;22;20011;-92
2023/04/07 01:48:35;;;;;;;35.75;15.00;;;9.60;99.90;;;;;;6253178;22;20008;-92
2023/04/07 01:51:03;;;;;;;30.60;15.20;;;9.60;99.90;;;;;;6255715;22;20015;-92
2023/04/07 01:53:30;;;;;;;35.67;15.05;;;9.60;99.90;;;;;;6257796;22;20012;-92
2023/04/07 01:55:55;;;;;;;38.25;14.98;;;9.50;99.90;;;;;;6232291;22;20434;-94
2023/04/07 01:58:24;;;;;;;36.45;15.45;;;9.50;99.90;;;;;;6231265;22;20095;-94
2023/04/07 02:00:50;;;;;;;39.90;15.32;;;9.50;99.90;;;;;;6232161;22;20014;-94
2023/04/07 02:03:51;;;;;;;36.83;15.13;;;9.50;99.90;;;;;;6228717;22;20031;-93
2023/04/07 02:06:21;;;;;;;36.60;14.80;;;9.50;99.90;;;;;;6253221;22;19999;-93
2023/04/07 02:08:53;;;;;;;34.40;15.17;;;9.50;99.90;;;;;;6253431;22;20009;-94
2023/04/07 02:11:21;;;;;;;34.17;15.20;;;9.50;99.90;;;;;;6253140;22;20669;-93
2023/04/07 02:13:47;;;;;;;33.83;14.10;;;9.50;99.90;;;;;;6252975;22;20006;-93
2023/04/07 02:16:15;;;;;;;36.72;15.10;;;9.50;99.90;;;;;;6252767;22;20004;-93
2023/04/07 02:18:43;;;;;;;39.58;15.55;;;9.50;99.90;;;;;;6228256;22;20032;-92
2023/04/07 02:21:10;;;;;;;32.80;14.40;;;9.60;99.90;;;;;;6254173;22;20049;-93
2023/04/07 02:23:36;;;;;;;39.03;15.88;;;9.50;99.90;;;;;;6268694;22;20021;-94
2023/04/07 02:26:02;;;;;;;41.55;16.00;;;9.50;99.90;;;;;;6222183;22;20004;-93
2023/04/07 02:28:28;;;;;;;39.05;16.42;;;9.50;99.90;;;;;;6295236;22;20081;-93
2023/04/07 02:30:54;;;;;;;36.63;15.30;;;9.50;99.90;;;;;;6221520;23;20026;-89
2023/04/07 02:33:20;;;;;;;38.03;15.40;;;9.50;99.90;;;;;;6196512;23;20004;-91
2023/04/07 02:35:45;;;;;;;36.80;14.73;;;9.50;99.90;;;;;;6222225;23;20012;-91
2023/04/07 02:38:11;;;;;;;34.75;15.18;;;9.50;99.90;;;;;;6198328;23;20000;-90
2023/04/07 02:40:37;;;;;;;35.92;15.10;;;9.40;99.90;;;;;;6249336;23;20468;-92
2023/04/07 02:43:04;;;;;;;38.10;14.90;;;9.50;99.90;;;;;;6196858;23;20031;-90
2023/04/07 02:45:30;;;;;;;48.38;16.20;;;9.40;99.90;;;;;;6253575;23;20000;-93
2023/04/07 02:47:55;;;;;;;37.72;15.30;;;9.40;99.90;;;;;;6227481;23;20028;-92
2023/04/07 02:50:21;;;;;;;44.85;16.02;;;9.40;99.90;;;;;;6222145;23;20012;-93
2023/04/07 02:52:47;;;;;;;37.25;15.00;;;9.40;99.90;;;;;;6204640;23;20084;-89
2023/04/07 02:55:13;;;;;;;48.75;16.33;;;9.40;99.90;;;;;;6273311;22;20042;-90
2023/04/07 02:57:38;;;;;;;36.63;15.00;;;9.40;99.90;;;;;;6221772;23;20039;-91
2023/04/07 03:00:05;;;;;;;50.47;16.73;;;9.40;99.90;;;;;;6247516;23;20028;-91
2023/04/07 03:02:30;;;;;;;42.58;15.25;;;9.40;99.90;;;;;;6221467;23;20099;-89
2023/04/07 03:04:56;;;;;;;41.63;16.33;;;9.40;99.90;;;;;;6221401;23;20000;-89
2023/04/07 03:07:22;;;;;;;41.05;16.25;;;9.40;99.90;;;;;;6221695;23;20011;-89
2023/04/07 03:09:49;;;;;;;45.70;17.40;;;9.40;99.90;;;;;;6196436;23;20364;-91
2023/04/07 03:12:15;;;;;;;47.83;17.38;;;9.50;99.90;;;;;;6221502;23;20500;-90
2023/04/07 03:14:41;;;;;;;37.80;16.48;;;9.40;99.90;;;;;;6221703;23;20436;-89
2023/04/07 03:17:06;;;;;;;46.30;17.83;;;9.40;99.90;;;;;;6196072;23;20011;-89
2023/04/07 03:19:32;;;;;;;49.40;19.45;;;9.40;99.90;;;;;;6246220;23;19996;-90
2023/04/07 03:21:58;;;;;;;49.85;17.77;;;9.40;99.90;;;;;;6221608;23;20000;-90
2023/04/07 03:24:24;;;;;;;46.65;18.55;;;9.40;99.90;;;;;;6221512;23;20467;-90
2023/04/07 03:26:50;;;;;;;52.08;19.13;;;9.40;99.90;;;;;;6221956;23;20020;-91
2023/04/07 03:29:16;;;;;;;43.13;18.10;;;9.50;99.90;;;;;;6222094;23;20018;-96
2023/04/07 03:31:41;;;;;;;31.60;16.27;;;9.50;99.90;;;;;;6245531;22;20094;-96
2023/04/07 03:34:07;;;;;;;35.85;18.10;;;9.50;99.90;;;;;;6251886;22;20019;-93
2023/04/07 03:36:36;;;;;;;38.63;18.58;;;9.50;99.90;;;;;;6226902;22;20004;-94
2023/04/07 03:39:01;;;;;;;56.10;19.48;;;9.50;99.90;;;;;;6228839;22;20411;-94
2023/04/07 03:41:27;;;;;;;46.67;19.90;;;9.50;99.90;;;;;;6226803;22;20049;-93
2023/04/07 03:43:53;;;;;;;44.28;18.95;;;9.40;99.90;;;;;;6249361;22;19994;-93
2023/04/07 03:46:20;;;;;;;46.60;20.27;;;9.50;99.90;;;;;;6227243;22;20031;-89
2023/04/07 03:48:46;;;;;;;49.88;20.33;;;9.40;99.90;;;;;;6251342;22;20042;-88
2023/04/07 03:51:12;;;;;;;49.15;20.90;;;9.40;99.90;;;;;;6226521;22;20057;-90
2023/04/07 03:53:37;;;;;;;51.60;19.35;;;9.40;99.90;;;;;;6226569;22;20004;-90
2023/04/07 03:56:03;;;;;;;46.40;19.65;;;9.50;99.90;;;;;;6202038;22;20434;-91
2023/04/07 03:58:29;;;;;;;47.45;19.38;;;9.50;99.90;;;;;;6227167;22;20004;-91
2023/04/07 04:00:55;;;;;;;50.30;19.45;;;9.50;99.90;;;;;;6202965;22;20026;-93
2023/04/07 04:03:20;;;;;;;46.22;18.80;;;9.50;99.90;;;;;;6201310;22;20308;-93
2023/04/07 04:05:46;;;;;;;52.45;20.40;;;9.50;99.90;;;;;;6226727;22;20011;-92
2023/04/07 04:08:12;;;;;;;58.22;20.25;;;9.50;99.90;;;;;;6204633;22;20041;-93
2023/04/07 04:10:37;;;;;;;53.35;19.73;;;9.50;99.90;;;;;;6204582;22;20415;-93
2023/04/07 04:13:05;;;;;;;43.95;19.85;;;9.50;99.90;;;;;;6227938;22;20031;-89
2023/04/07 04:15:31;;;;;;;48.80;19.98;;;9.50;99.90;;;;;;6229620;22;20003;-90
2023/04/07 04:18:15;;;;;;;52.83;20.35;;;9.50;99.90;;;;;;6252263;22;19996;-90
2023/04/07 04:20:48;;;;;;;55.78;20.80;;;9.50;99.90;;;;;;6226799;22;20007;-90
2023/04/07 04:23:16;;;;;;;48.05;19.05;;;9.50;99.90;;;;;;6226348;22;20249;-90
2023/04/07 04:25:42;;;;;;;54.75;19.23;;;9.40;99.90;;;;;;6203011;22;20012;-94
2023/04/07 04:28:07;;;;;;;41.33;18.35;;;9.50;99.90;;;;;;6229566;22;20046;-92
2023/04/07 04:30:34;;;;;;;45.58;18.83;;;9.50;99.90;;;;;;6205848;22;20008;-92
2023/04/07 04:33:02;;;;;;;35.50;17.58;;;9.50;99.90;;;;;;6210756;22;20008;-92
2023/04/07 04:35:28;;;;;;;43.20;18.58;;;9.50;99.90;;;;;;6239450;22;20008;-93
2023/04/07 04:37:54;;;;;;;48.90;19.83;;;9.50;99.90;;;;;;6236038;22;20018;-93
2023/04/07 04:40:20;;;;;;;48.40;19.25;;;9.50;99.90;;;;;;6210029;22;20000;-93
2023/04/07 04:42:45;;;;;;;52.10;17.60;;;9.50;99.90;;;;;;6212757;22;20010;-93
2023/04/07 04:45:11;;;;;;;49.85;19.08;;;9.50;99.90;;;;;;6261798;22;20003;-92
2023/04/07 04:47:38;;;;;;;50.22;18.85;;;9.50;99.90;;;;;;6260733;22;20004;-93
2023/04/07 04:50:05;;;;;;;46.28;18.63;;;9.50;99.90;;;;;;6203585;22;20008;-89
2023/04/07 04:52:56;;;;;;;47.08;17.52;;;9.50;99.90;;;;;;6228241;22;20012;-89
2023/04/07 04:55:25;;;;;;;45.15;17.38;;;9.50;99.90;;;;;;6253042;22;20008;-89
2023/04/07 04:57:54;;;;;;;54.50;18.92;;;9.50;99.90;;;;;;6228155;22;20000;-89
2023/04/07 05:00:37;;;;;;;58.45;18.60;;;9.50;99.90;;;;;;6234501;22;20008;-89
2023/04/07 05:03:05;;;;;;;48.95;17.92;;;9.50;99.90;;;;;;6234976;22;20010;-91
2023/04/07 05:06:00;;;;;;;54.13;17.38;;;9.50;99.90;;;;;;6203686;22;20049;-92
2023/04/07 05:08:44;;;;;;;53.33;18.35;;;9.50;99.90;;;;;;6226448;22;20446;-94
2023/04/07 05:11:11;;;;;;;56.38;18.80;;;9.50;99.90;;;;;;6204003;22;20508;-93
2023/04/07 05:13:39;;;;;;;47.83;17.00;;;9.50;99.90;;;;;;6228206;22;20069;-93
2023/04/07 05:16:05;;;;;;;39.63;16.48;;;9.50;99.90;;;;;;6232521;22;20012;-93
2023/04/07 05:18:41;;;;;;;58.85;18.52;;;9.50;99.90;;;;;;6216947;22;20000;-94
2023/04/07 05:21:06;;;;;;;38.38;16.17;;;9.50;99.90;;;;;;6267000;22;19996;-95
2023/04/07 05:23:41;;;;;;;38.88;15.65;;;9.50;99.90;;;;;;6210295;22;20026;-92
2023/04/07 05:26:10;;;;;;;52.10;16.85;;;9.50;99.90;;;;;;6207001;22;20011;-93
2023/04/07 05:28:37;;;;;;;43.95;17.02;;;9.50;99.90;;;;;;6232318;22;20015;-93
2023/04/07 05:31:06;;;;;;;62.08;17.95;;;9.50;99.90;;;;;;6199425;23;20023;-93
2023/04/07 05:33:33;;;;;;;52.58;18.08;;;9.50;99.90;;;;;;6206927;23;20004;-93
2023/04/07 05:35:58;;;;;;;44.42;16.55;;;9.50;99.90;;;;;;6256060;23;20035;-94
2023/04/07 05:38:27;;;;;;;45.92;17.13;;;9.50;99.90;;;;;;6232003;23;19997;-94
2023/04/07 05:40:53;;;;;;;45.92;16.48;;;9.50;99.90;;;;;;6203604;23;20000;-91
2023/04/07 05:43:19;;;;;;;57.38;17.88;;;9.50;99.90;;;;;;6230356;23;20328;-92
2023/04/07 05:45:45;;;;;;;38.25;16.50;;;9.50;99.90;;;;;;6226002;23;20015;-94
2023/04/07 05:48:13;;;;;;;55.22;17.45;;;9.50;99.90;;;;;;6199483;23;20008;-94
2023/04/07 05:50:39;;;;;;;43.30;17.08;;;9.50;99.90;;;;;;6223409;23;20004;-93
2023/04/07 05:53:05;;;;;;;43.13;16.77;;;9.50;99.90;;;;;;6248727;23;20091;-93
2023/04/07 05:55:31;;;;;;;46.38;15.95;;;9.50;99.90;;;;;;6223173;23;20023;-89
2023/04/07 05:57:57;;;;;;;45.50;17.73;;;9.50;99.90;;;;;;6221519;23;20141;-89
2023/04/07 06:00:24;;;;;;;40.38;16.98;;;9.50;99.90;;;;;;6197021;23;20007;-89
2023/04/07 06:02:50;;;;;;;50.10;17.80;;;9.50;99.90;;;;;;6222355;23;20007;-90
2023/04/07 06:05:16;;;;;;;45.08;18.38;;;9.50;99.90;;;;;;6221679;23;20501;-89
2023/04/07 06:07:42;;;;;;;59.88;19.52;;;9.50;99.90;;;;;;6221615;23;20008;-90
2023/04/07 06:10:08;;;;;;;46.88;18.20;;;9.50;99.90;;;;;;6196881;23;20010;-90
2023/04/07 06:12:33;;;;;;;45.40;17.17;;;9.50;99.90;;;;;;6246908;23;20008;-90
2023/04/07 06:14:59;;;;;;;43.42;17.13;;;9.50;99.90;;;;;;6221609;23;20015;-90
2023/04/07 06:17:25;;;;;;;50.40;17.63;;;9.50;99.90;;;;;;6222609;23;20442;-95
2023/04/07 06:19:50;;;;;;;46.28;16.75;;;9.50;99.90;;;;;;6225016;23;20008;-96
2023/04/07 06:22:16;;;;;;;43.60;18.23;;;9.50;99.90;;;;;;6199298;23;20423;-94
2023/04/07 06:24:42;;;;;;;47.38;18.27;;;9.50;99.90;;;;;;6224681;23;20024;-94
2023/04/07 06:27:08;;;;;;;49.72;17.52;;;9.50;99.90;;;;;;6228233;23;20008;-95
2023/04/07 06:29:34;;;;;;;45.10;17.45;;;9.50;99.90;;;;;;6224290;23;20015;-90
2023/04/07 06:32:00;;;;;;;40.97;16.88;;;9.50;99.90;;;;;;6226084;22;20023;-91
2023/04/07 06:34:29;;;;;;;37.08;16.35;;;9.50;99.90;;;;;;6252663;22;20034;-91
2023/04/07 06:36:55;;;;;;;40.50;17.02;;;9.60;99.90;;;;;;6204510;22;20099;-90
2023/04/07 06:39:20;;;;;;;44.80;16.52;;;9.60;99.90;;;;;;6204906;22;20006;-92
2023/04/07 06:41:46;;;;;;;39.92;16.58;;;9.60;99.90;;;;;;6228745;22;20008;-94
2023/04/07 06:44:13;;;;;;;41.95;17.55;;;9.60;99.90;;;;;;6257591;22;20011;-93
2023/04/07 06:46:40;;;;;;;50.40;18.10;;;9.60;99.90;;;;;;6227350;22;20012;-94
2023/04/07 06:49:06;;;;;;;38.47;17.58;;;9.60;99.90;;;;;;6229290;22;20062;-94
2023/04/07 06:51:32;;;;;;;41.38;17.05;;;9.60;99.90;;;;;;6227978;22;20003;-94
2023/04/07 06:53:57;;;;;;;61.38;20.55;;;9.60;99.90;;;;;;6202295;22;20419;-94
2023/04/07 06:56:23;;;;;;;61.15;19.70;;;9.60;99.90;;;;;;6226777;22;20329;-94
2023/04/07 06:58:49;;;;;;;58.63;19.67;;;9.70;99.90;;;;;;6252733;22;20098;-93
2023/04/07 07:01:15;;;;;;;57.80;19.65;;;9.60;99.90;;;;;;6227360;22;20018;-92
2023/04/07 07:03:41;;;;;;;55.88;19.98;;;9.70;99.90;;;;;;6261847;22;20042;-90
2023/04/07 07:06:07;;;;;;;60.10;19.73;;;9.60;99.90;;;;;;6235402;22;20040;-91
2023/04/07 07:08:33;;;;;;;47.13;18.58;;;9.70;99.90;;;;;;6214629;22;20086;-93
2023/04/07 07:10:58;;;;;;;44.58;18.33;;;9.70;99.90;;;;;;6227758;22;20094;-92
2023/04/07 07:13:25;;;;;;;38.15;15.02;;;9.60;99.90;;;;;;6252189;22;20374;-93
2023/04/07 07:15:51;;;;;;;32.72;13.18;;;9.60;99.90;;;;;;6252396;22;20042;-95
2023/04/07 07:18:20;;;;;;;27.88;13.05;;;9.60;99.90;;;;;;6226946;22;20004;-95
2023/04/07 07:20:45;;;;;;;30.70;11.70;;;9.60;99.90;;;;;;6226803;22;20003;-96
2023/04/07 07:23:17;;;;;;;25.95;11.52;;;9.60;99.90;;;;;;6227339;22;20092;-95
2023/04/07 07:25:44;;;;;;;20.90;10.70;;;9.70;99.90;;;;;;6252263;22;20004;-96
2023/04/07 07:28:09;;;;;;;24.85;11.60;;;9.70;99.90;;;;;;6252392;22;19999;-96
2023/04/07 07:30:39;;;;;;;21.92;10.35;;;9.70;99.90;;;;;;6224548;23;20027;-95
2023/04/07 07:33:05;;;;;;;23.23;10.75;;;9.70;99.90;;;;;;6258739;23;20015;-92
2023/04/07 07:35:31;;;;;;;19.88;10.27;;;9.80;99.90;;;;;;6203230;23;20091;-92
2023/04/07 07:38:03;;;;;;;21.20;9.93;;;9.80;99.90;;;;;;6222224;23;20354;-92
2023/04/07 07:40:29;;;;;;;16.85;9.43;;;9.80;99.90;;;;;;6222082;23;20059;-95
2023/04/07 07:42:54;;;;;;;19.33;9.27;;;9.80;99.90;;;;;;6222009;23;20008;-95
2023/04/07 07:45:20;;;;;;;18.52;8.77;;;9.80;99.90;;;;;;6248528;23;20011;-95
2023/04/07 07:47:46;;;;;;;22.83;10.77;;;9.80;99.90;;;;;;6221763;23;20011;-95
2023/04/07 07:50:12;;;;;;;19.83;9.35;;;9.90;99.90;;;;;;6221597;23;20309;-94
2023/04/07 07:52:40;;;;;;;17.48;8.95;;;9.90;99.90;;;;;;6222334;23;20004;-95
2023/04/07 07:55:06;;;;;;;24.95;9.55;;;9.90;99.90;;;;;;6223241;23;20004;-95
2023/04/07 07:57:32;;;;;;;20.83;9.23;;;9.90;99.90;;;;;;6225251;23;20009;-96
2023/04/07 08:00:03;;;;;;;16.23;9.07;;;9.90;99.90;;;;;;6248963;23;20056;-94
2023/04/07 08:02:31;;;;;;;23.13;9.13;;;9.90;99.90;;;;;;6223197;23;20009;-95
2023/04/07 08:04:57;;;;;;;17.67;9.40;;;10.00;99.90;;;;;;6234180;23;20008;-93
2023/04/07 08:07:23;;;;;;;16.55;8.75;;;10.00;99.90;;;;;;6250965;23;20008;-94
2023/04/07 08:09:49;;;;;;;16.33;8.75;;;10.00;99.90;;;;;;6223944;23;20008;-92
2023/04/07 08:12:15;;;;;;;15.93;8.52;;;10.00;99.90;;;;;;6223937;23;20019;-92
2023/04/07 08:14:42;;;;;;;16.63;9.02;;;10.10;99.90;;;;;;6223166;23;20012;-93
2023/04/07 08:17:08;;;;;;;16.67;9.30;;;10.10;99.90;;;;;;6223246;23;20004;-93
2023/04/07 08:19:33;;;;;;;19.08;8.60;;;10.10;99.90;;;;;;6223156;23;20046;-93
2023/04/07 08:21:59;;;;;;;20.02;9.07;;;10.10;99.90;;;;;;6223219;23;20011;-91
2023/04/07 08:24:25;;;;;;;15.50;7.97;;;10.10;99.90;;;;;;6248056;23;20011;-92
2023/04/07 08:26:50;;;;;;;17.45;8.65;;;10.10;99.90;;;;;;6248668;23;20008;-90
2023/04/07 08:29:16;;;;;;;21.27;8.88;;;10.10;99.90;;;;;;6222772;23;20094;-91
2023/04/07 08:35:35;;;;;;;15.23;8.90;;;10.10;99.90;;;;;;6188698;23;20024;-91
2023/04/07 08:38:02;;;;;;;18.13;9.73;;;10.10;99.90;;;;;;6169409;23;20005;-91
2023/04/07 08:40:29;;;;;;;17.92;9.38;;;10.10;99.90;;;;;;6140602;23;20040;-89
2023/04/07 08:42:58;;;;;;;18.73;9.15;;;10.10;99.90;;;;;;6138356;23;20040;-90
2023/04/07 08:45:25;;;;;;;17.00;8.82;;;10.10;99.90;;;;;;6141527;23;20539;-91
2023/04/07 08:47:57;;;;;;;23.98;8.85;;;10.10;99.90;;;;;;6115953;23;20385;-90
2023/04/07 08:50:26;;;;;;;19.42;8.82;;;10.10;99.90;;;;;;6139495;23;20009;-88
2023/04/07 08:53:05;;;;;;;18.35;8.93;;;10.10;99.90;;;;;;6143611;23;20013;-93
2023/04/07 08:55:31;;;;;;;17.55;9.48;;;10.10;99.90;;;;;;6165847;23;20053;-95
2023/04/07 08:57:57;;;;;;;16.20;9.32;;;10.10;99.90;;;;;;6125996;22;20009;-93
2023/04/07 09:00:23;;;;;;;22.27;10.27;;;10.20;99.90;;;;;;6253213;22;20027;-90
2023/04/07 09:02:50;;;;;;;16.80;10.38;;;10.20;99.90;;;;;;6227349;22;20011;-93
2023/04/07 09:05:16;;;;;;;21.15;10.02;;;10.20;99.90;;;;;;6253913;22;20004;-92
2023/04/07 09:07:42;;;;;;;23.23;10.68;;;10.20;99.90;;;;;;6207555;22;20038;-93
2023/04/07 09:10:08;;;;;;;26.15;13.10;;;10.20;99.90;;;;;;6234317;22;20008;-92
2023/04/07 09:12:35;;;;;;;20.92;11.63;;;10.20;99.90;;;;;;6230722;22;20008;-92
2023/04/07 09:15:01;;;;;;;24.20;11.90;;;10.20;99.90;;;;;;6252965;22;20339;-93
2023/04/07 09:17:29;;;;;;;22.60;11.63;;;10.20;99.90;;;;;;6253754;22;20006;-93
2023/04/07 09:19:57;;;;;;;27.33;13.07;;;10.20;99.90;;;;;;6253632;22;20008;-94
2023/04/07 09:22:39;;;;;;;28.02;12.27;;;10.20;99.90;;;;;;6254158;22;20003;-93
2023/04/07 09:25:16;;;;;;;24.75;11.90;;;10.20;99.90;;;;;;6253798;22;20006;-94
2023/04/07 09:27:54;;;;;;;21.33;11.95;;;10.30;99.90;;;;;;6256030;22;19999;-91
2023/04/07 09:30:20;;;;;;;24.80;12.40;;;10.30;99.90;;;;;;6252652;22;20003;-91
2023/04/07 09:32:45;;;;;;;25.50;12.25;;;10.30;99.90;;;;;;6228605;22;20103;-93
2023/04/07 09:35:11;;;;;;;29.42;12.55;;;10.30;99.90;;;;;;6245469;22;20016;-92
2023/04/07 09:37:37;;;;;;;24.98;11.35;;;10.40;99.90;;;;;;6243098;22;20023;-92
2023/04/07 09:40:03;;;;;;;23.70;10.70;;;10.40;99.90;;;;;;6204247;22;20007;-94
2023/04/07 09:47:40;;;;;;;19.13;10.00;;;10.50;99.90;;;;;;6225131;22;20040;-95
2023/04/07 09:50:06;;;;;;;17.50;8.75;;;10.50;99.90;;;;;;6197680;23;20013;-92
2023/04/07 09:52:51;;;;;;;19.23;9.38;;;10.50;99.90;;;;;;6192169;23;20012;-93
2023/04/07 09:55:21;;;;;;;22.88;9.00;;;10.50;99.90;;;;;;6191843;23;20017;-92
2023/04/07 09:57:50;;;;;;;16.42;9.65;;;10.50;99.90;;;;;;6193124;23;20027;-96
2023/04/07 10:00:17;;;;;;;18.48;9.13;;;10.50;99.90;;;;;;6197717;23;20027;-95
2023/04/07 10:02:43;;;;;;;15.60;9.43;;;10.50;99.90;;;;;;6193865;23;20005;-92
2023/04/07 10:05:12;;;;;;;21.80;10.07;;;10.50;99.90;;;;;;6192205;23;20428;-95
2023/04/07 10:07:38;;;;;;;19.85;10.27;;;10.50;99.90;;;;;;6191887;23;20020;-94
2023/04/07 10:10:04;;;;;;;17.17;9.50;;;10.60;99.90;;;;;;6191957;23;20012;-93
2023/04/07 10:12:37;;;;;;;19.38;9.23;;;10.50;99.90;;;;;;6191754;23;20000;-95
2023/04/07 10:15:03;;;;;;;20.00;9.60;;;10.60;99.90;;;;;;6191985;23;20008;-94
2023/04/07 10:17:30;;;;;;;22.55;9.70;;;10.60;99.90;;;;;;6194356;23;20412;-92
2023/04/07 10:19:58;;;;;;;17.55;8.32;;;10.60;99.90;;;;;;6198923;23;20039;-92
2023/04/07 10:22:26;;;;;;;13.98;8.55;;;10.60;99.90;;;;;;6197941;23;20001;-89
2023/04/07 10:25:03;;;;;;;16.08;8.60;;;10.60;99.90;;;;;;6192498;23;20004;-89
2023/04/07 10:27:32;;;;;;;15.40;8.85;;;10.60;99.90;;;;;;6190232;23;20073;-89
2023/04/07 10:30:00;;;;;;;20.73;9.40;;;10.60;99.90;;;;;;6190974;23;20012;-89
2023/04/07 10:32:25;;;;;;;17.25;8.02;;;10.60;99.90;;;;;;6191301;23;20000;-89
2023/04/07 10:34:54;;;;;;;14.50;8.07;;;10.60;99.90;;;;;;6190797;23;20019;-89
2023/04/07 10:37:21;;;;;;;17.30;8.25;;;10.60;99.90;;;;;;6190726;23;20004;-89
2023/04/07 10:40:11;;;;;;;16.17;7.90;;;10.60;99.90;;;;;;6190714;23;20439;-93
2023/04/07 10:42:40;;;;;;;16.42;8.32;;;10.60;99.90;;;;;;6190897;23;20012;-93
2023/04/07 10:45:08;;;;;;;20.23;8.07;;;10.60;99.90;;;;;;6191543;23;20004;-93
2023/04/07 10:47:35;;;;;;;16.75;7.70;;;10.50;99.90;;;;;;6191235;23;20019;-94
2023/04/07 10:50:21;;;;;;;18.52;8.05;;;10.60;99.90;;;;;;6191816;23;20004;-95
2023/04/07 10:52:48;;;;;;;15.70;8.23;;;10.60;99.90;;;;;;6192706;23;20148;-94
2023/04/07 10:55:37;;;;;;;15.15;6.93;;;10.60;99.90;;;;;;6168575;23;20008;-93
2023/04/07 10:58:24;;;;;;;15.65;7.47;;;10.60;99.90;;;;;;6191952;23;20031;-93
2023/04/07 11:00:59;;;;;;;13.68;6.80;;;10.60;99.90;;;;;;6192006;23;20412;-92
2023/04/07 11:03:26;;;;;;;10.98;6.20;;;10.60;99.90;;;;;;6192034;23;20000;-94
2023/04/07 11:05:51;;;;;;;15.63;7.07;;;10.70;99.90;;;;;;6193207;23;20008;-89
2023/04/07 11:08:33;;;;;;;12.98;6.72;;;10.70;99.90;;;;;;6191030;23;20503;-89
2023/04/07 11:10:59;;;;;;;14.07;6.97;;;10.70;99.90;;;;;;6191035;23;20005;-89
2023/04/07 11:13:26;;;;;;;17.08;7.60;;;10.70;99.90;;;;;;6191014;23;20007;-94
2023/04/07 11:15:52;;;;;;;13.63;7.72;;;10.70;99.90;;;;;;6166843;23;20009;-89
2023/04/07 11:18:20;;;;;;;14.43;7.18;;;10.70;99.90;;;;;;6191658;23;20001;-93
2023/04/07 11:20:55;;;;;;;16.60;7.35;;;10.70;99.90;;;;;;6195191;23;20020;-94
2023/04/07 11:23:22;;;;;;;17.85;7.90;;;10.70;99.90;;;;;;6197051;23;20000;-95
2023/04/07 11:25:50;;;;;;;14.60;7.15;;;10.70;99.90;;;;;;6194499;23;20008;-95
2023/04/07 11:28:16;;;;;;;13.15;7.68;;;10.70;99.90;;;;;;6191989;23;20009;-95
2023/04/07 11:30:48;;;;;;;11.85;7.45;;;10.70;99.90;;;;;;6192431;23;20055;-95
2023/04/07 11:33:19;;;;;;;19.27;8.30;;;10.70;99.90;;;;;;6192862;23;20435;-95
2023/04/07 11:35:50;;;;;;;19.08;8.20;;;10.70;99.90;;;;;;6192859;23;20004;-94
2023/04/07 11:38:16;;;;;;;15.93;7.53;;;10.80;99.90;;;;;;6195647;23;20333;-95
2023/04/07 11:40:42;;;;;;;15.05;8.52;;;10.80;99.90;;;;;;6194631;23;20004;-94
2023/04/07 11:43:18;;;;;;;15.73;8.45;;;10.80;99.90;;;;;;6192950;23;20040;-94
2023/04/07 11:45:44;;;;;;;15.20;7.78;;;10.90;99.90;;;;;;6193381;23;20011;-93
2023/04/07 11:48:29;;;;;;;14.70;8.07;;;10.90;99.90;;;;;;6195070;23;20009;-94
2023/04/07 11:50:55;;;;;;;19.75;8.63;;;10.90;99.90;;;;;;6197290;23;20008;-96
2023/04/07 11:53:32;;;;;;;15.48;8.05;;;10.90;99.90;;;;;;6194856;23;20447;-93
2023/04/07 11:55:59;;;;;;;16.00;8.43;;;11.00;99.90;;;;;;6194472;23;20416;-90
2023/04/07 11:58:25;;;;;;;17.85;8.75;;;11.00;99.90;;;;;;6191132;23;20007;-90
2023/04/07 12:01:02;;;;;;;26.92;9.43;;;11.00;99.90;;;;;;6191033;23;20088;-93
2023/04/07 12:03:28;;;;;;;18.95;8.77;;;11.00;99.90;;;;;;6191524;23;20008;-90
2023/04/07 12:05:54;;;;;;;17.10;8.63;;;10.90;99.90;;;;;;6165914;23;20011;-90
2023/04/07 12:08:20;;;;;;;16.27;9.10;;;11.00;99.90;;;;;;6165501;23;20057;-90
2023/04/07 12:10:47;;;;;;;16.83;8.63;;;11.00;99.90;;;;;;6190771;23;20008;-90
2023/04/07 12:13:13;;;;;;;19.02;9.20;;;11.00;99.90;;;;;;6216259;23;20009;-89
2023/04/07 12:15:39;;;;;;;15.43;8.55;;;10.90;99.90;;;;;;6190330;23;20032;-89
2023/04/07 12:18:05;;;;;;;20.05;9.27;;;11.00;99.90;;;;;;6190547;23;20595;-89
2023/04/07 12:20:31;;;;;;;17.50;9.48;;;10.90;99.90;;;;;;6190553;23;20011;-89
2023/04/07 12:22:59;;;;;;;19.90;9.90;;;11.00;99.90;;;;;;6191108;23;20055;-89
2023/04/07 12:25:26;;;;;;;18.52;10.10;;;11.00;99.90;;;;;;6190670;23;20015;-89
2023/04/07 12:27:51;;;;;;;18.05;10.13;;;11.00;99.90;;;;;;6190858;23;20435;-90
2023/04/07 12:30:20;;;;;;;19.73;10.45;;;11.00;99.90;;;;;;6190602;23;20084;-89
2023/04/07 12:32:46;;;;;;;16.48;9.80;;;11.00;99.90;;;;;;6190898;23;20391;-90
2023/04/07 12:35:12;;;;;;;17.45;11.05;;;11.00;99.90;;;;;;6165811;23;20009;-93
2023/04/07 12:37:37;;;;;;;16.42;9.73;;;11.10;99.90;;;;;;6192286;23;20016;-93
2023/04/07 12:40:03;;;;;;;20.42;10.40;;;11.10;99.90;;;;;;6192487;23;20004;-94
2023/04/07 12:42:29;;;;;;;20.63;11.43;;;11.10;99.90;;;;;;6192326;23;20016;-93
2023/04/07 12:44:55;;;;;;;20.58;9.80;;;11.10;99.90;;;;;;6167600;23;20012;-93
2023/04/07 12:47:21;;;;;;;20.60;10.35;;;11.10;99.90;;;;;;6192571;23;20024;-94
2023/04/07 12:49:46;;;;;;;24.35;10.93;;;11.10;99.90;;;;;;6167178;23;20454;-93